Time;durP1;ratioP1;P1;durP2;ratioP2;P2;SDS_P1;SDS_P2;PMS_P1;PMS_P2;Temp;Humidity;BMP_temperature;BMP_pressure;BME280_temperature;BME280_humidity;BME280_pressure;Samples;Min_cycle;Max_cycle;Signal;HPM_P1;HPM_P2
2022/08/14 00:00:07;;;;;;;3.90;3.10;;;;;;;;;;4977440;28;20447;-75
2022/08/14 00:02:33;;;;;;;2.70;2.50;;;;;;;;;;5002842;28;20443;-77
2022/08/14 00:04:59;;;;;;;3.60;2.93;;;;;;;;;;4982746;28;20441;-77
2022/08/14 00:07:25;;;;;;;4.30;2.90;;;;;;;;;;5001713;28;20185;-77
2022/08/14 00:09:52;;;;;;;3.43;3.13;;;;;;;;;;4982051;28;20436;-77
2022/08/14 00:12:18;;;;;;;3.77;2.67;;;;;;;;;;5003333;28;21001;-77
2022/08/14 00:14:44;;;;;;;3.07;2.77;;;;;;;;;;4963588;28;20455;-76
2022/08/14 00:17:10;;;;;;;3.27;2.90;;;;;;;;;;5003434;28;20215;-77
2022/08/14 00:19:46;;;;;;;4.33;3.67;;;;;;;;;;4973477;28;20484;-75
2022/08/14 00:22:17;;;;;;;4.17;2.70;;;;;;;;;;5006439;28;20431;-75
2022/08/14 00:25:14;;;;;;;4.70;3.20;;;;;;;;;;5004311;28;20915;-75
2022/08/14 00:27:40;;;;;;;5.67;3.40;;;;;;;;;;4974205;28;20433;-75
2022/08/14 00:30:07;;;;;;;3.30;3.00;;;;;;;;;;4997213;28;20429;-75
2022/08/14 00:32:33;;;;;;;3.23;2.93;;;;;;;;;;4982934;28;20479;-75
2022/08/14 00:35:00;;;;;;;4.90;3.37;;;;;;;;;;4982070;28;20571;-74
2022/08/14 00:37:26;;;;;;;4.27;2.97;;;;;;;;;;4985648;28;21441;-77
2022/08/14 00:39:52;;;;;;;5.30;3.93;;;;;;;;;;4982504;28;21033;-77
2022/08/14 00:42:22;;;;;;;4.37;3.70;;;;;;;;;;5001498;28;20436;-77
2022/08/14 00:44:48;;;;;;;3.73;3.03;;;;;;;;;;4996474;28;20435;-75
2022/08/14 00:47:14;;;;;;;3.93;3.40;;;;;;;;;;5003097;28;20916;-75
2022/08/14 00:49:44;;;;;;;3.73;3.00;;;;;;;;;;4984258;28;20455;-76
2022/08/14 00:52:11;;;;;;;4.30;3.47;;;;;;;;;;4986347;28;20508;-75
2022/08/14 00:54:37;;;;;;;4.27;3.30;;;;;;;;;;4997132;28;21207;-76
2022/08/14 00:57:03;;;;;;;4.90;3.70;;;;;;;;;;4999961;28;20486;-78
2022/08/14 00:59:59;;;;;;;4.10;2.80;;;;;;;;;;5003063;28;20205;-75
2022/08/14 01:02:26;;;;;;;5.50;3.60;;;;;;;;;;4978548;28;21095;-75
2022/08/14 01:04:52;;;;;;;2.97;2.70;;;;;;;;;;4984297;28;20431;-75
2022/08/14 01:07:19;;;;;;;4.07;3.40;;;;;;;;;;4978585;28;20453;-77
2022/08/14 01:09:57;;;;;;;3.40;3.10;;;;;;;;;;4985544;28;21314;-76
2022/08/14 01:12:27;;;;;;;4.90;3.30;;;;;;;;;;4963484;28;20503;-76
2022/08/14 01:14:54;;;;;;;6.70;3.43;;;;;;;;;;5004184;28;20440;-76
2022/08/14 01:17:23;;;;;;;3.13;2.80;;;;;;;;;;5001539;28;20432;-75
2022/08/14 01:22:35;;;;;;;5.20;3.47;;;;;;;;;;4986153;28;20532;-76
2022/08/14 01:25:02;;;;;;;3.17;2.87;;;;;;;;;;4995947;28;20504;-75
2022/08/14 01:27:28;;;;;;;3.57;3.27;;;;;;;;;;4997895;28;20490;-75
2022/08/14 01:32:42;;;;;;;3.40;3.10;;;;;;;;;;4961846;28;20455;-76
2022/08/14 01:35:15;;;;;;;4.40;3.07;;;;;;;;;;4986464;28;20470;-77
2022/08/14 01:37:45;;;;;;;4.00;3.00;;;;;;;;;;4986522;28;20212;-75
2022/08/14 01:43:13;;;;;;;6.30;3.30;;;;;;;;;;4981274;28;20462;-75
2022/08/14 01:45:39;;;;;;;3.80;3.50;;;;;;;;;;4994495;28;20440;-77
2022/08/14 01:48:07;;;;;;;3.63;3.07;;;;;;;;;;4998907;28;20939;-77
2022/08/14 01:50:35;;;;;;;3.63;3.07;;;;;;;;;;4968319;28;23095;-77
2022/08/14 01:53:02;;;;;;;3.67;3.20;;;;;;;;;;4967116;28;20814;-76
2022/08/14 01:55:38;;;;;;;3.30;2.77;;;;;;;;;;4972523;28;20871;-75
2022/08/14 01:58:05;;;;;;;4.03;3.37;;;;;;;;;;4998007;28;20529;-74
2022/08/14 02:01:05;;;;;;;2.43;2.23;;;;;;;;;;4981469;28;20444;-75
2022/08/14 02:03:34;;;;;;;3.07;2.87;;;;;;;;;;4954918;28;20197;-75
2022/08/14 02:06:16;;;;;;;4.40;2.83;;;;;;;;;;5002542;28;20435;-75
2022/08/14 02:08:42;;;;;;;4.00;3.20;;;;;;;;;;4989643;28;20436;-76
2022/08/14 02:11:21;;;;;;;3.10;2.67;;;;;;;;;;4987027;28;20436;-74
2022/08/14 02:13:58;;;;;;;3.03;2.73;;;;;;;;;;4970767;28;20464;-76
2022/08/14 02:16:25;;;;;;;3.27;3.07;;;;;;;;;;5003625;28;20420;-75
2022/08/14 02:18:55;;;;;;;4.07;3.60;;;;;;;;;;5005107;28;20495;-76
2022/08/14 02:21:35;;;;;;;3.83;3.10;;;;;;;;;;4985917;28;20521;-76
2022/08/14 02:24:01;;;;;;;3.70;2.70;;;;;;;;;;4985796;28;20452;-75
2022/08/14 02:26:48;;;;;;;4.47;3.10;;;;;;;;;;4986479;28;20489;-76
2022/08/14 02:29:16;;;;;;;4.90;3.13;;;;;;;;;;5001431;28;20452;-75
2022/08/14 02:32:02;;;;;;;3.63;2.97;;;;;;;;;;4995474;28;20436;-76
2022/08/14 02:34:32;;;;;;;3.80;2.83;;;;;;;;;;4996227;28;21162;-76
2022/08/14 02:37:01;;;;;;;7.80;3.10;;;;;;;;;;4978943;28;20455;-75
2022/08/14 02:39:28;;;;;;;3.60;2.83;;;;;;;;;;4982642;28;20483;-77
2022/08/14 02:41:57;;;;;;;2.97;2.67;;;;;;;;;;5002436;28;20515;-77
2022/08/14 02:44:23;;;;;;;3.67;2.87;;;;;;;;;;4981140;28;20446;-77
2022/08/14 02:46:50;;;;;;;3.80;3.20;;;;;;;;;;4981763;28;20538;-76
2022/08/14 02:49:16;;;;;;;3.90;3.13;;;;;;;;;;4976576;28;20432;-77
2022/08/14 02:51:42;;;;;;;4.23;3.33;;;;;;;;;;4995745;28;20436;-75
2022/08/14 02:54:08;;;;;;;3.63;2.70;;;;;;;;;;4997527;28;20429;-75
2022/08/14 02:56:37;;;;;;;3.83;3.20;;;;;;;;;;4996673;28;20535;-75
2022/08/14 02:59:05;;;;;;;3.23;2.90;;;;;;;;;;4979578;28;20507;-77
2022/08/14 03:01:31;;;;;;;3.40;3.10;;;;;;;;;;4998386;28;20475;-77
2022/08/14 03:03:57;;;;;;;3.20;3.00;;;;;;;;;;4998154;28;20908;-77
2022/08/14 03:06:24;;;;;;;4.17;2.97;;;;;;;;;;5004172;28;20542;-75
2022/08/14 03:08:51;;;;;;;3.83;3.43;;;;;;;;;;4987579;28;20543;-75
2022/08/14 03:11:18;;;;;;;5.60;3.50;;;;;;;;;;4987311;28;20501;-76
2022/08/14 03:13:46;;;;;;;7.10;3.10;;;;;;;;;;4984159;28;20845;-75
2022/08/14 03:16:15;;;;;;;2.93;2.70;;;;;;;;;;5001756;28;20428;-75
2022/08/14 03:18:41;;;;;;;4.50;3.70;;;;;;;;;;4987268;28;20537;-76
2022/08/14 03:21:08;;;;;;;3.13;2.83;;;;;;;;;;4994912;28;20467;-75
2022/08/14 03:23:35;;;;;;;4.30;3.13;;;;;;;;;;4984180;28;20458;-76
2022/08/14 03:26:02;;;;;;;4.10;3.70;;;;;;;;;;4986263;28;20443;-76
2022/08/14 03:28:29;;;;;;;3.23;3.00;;;;;;;;;;4996035;28;20479;-77
2022/08/14 03:30:56;;;;;;;4.30;3.37;;;;;;;;;;4988126;28;20438;-76
2022/08/14 03:33:22;;;;;;;3.27;2.97;;;;;;;;;;4981406;28;20483;-76
2022/08/14 03:35:49;;;;;;;3.53;3.10;;;;;;;;;;4987380;28;20452;-76
2022/08/14 03:38:16;;;;;;;4.13;2.87;;;;;;;;;;4996120;28;20535;-77
2022/08/14 03:40:42;;;;;;;4.00;3.43;;;;;;;;;;4987319;28;20435;-77
2022/08/14 03:43:11;;;;;;;3.20;2.90;;;;;;;;;;5002995;28;20448;-77
2022/08/14 03:45:38;;;;;;;3.33;3.03;;;;;;;;;;4984304;28;20454;-77
2022/08/14 03:48:12;;;;;;;4.70;3.10;;;;;;;;;;5008757;28;20548;-77
2022/08/14 03:50:38;;;;;;;2.97;2.67;;;;;;;;;;4993925;28;20422;-77
2022/08/14 03:53:04;;;;;;;4.00;2.70;;;;;;;;;;5013858;28;20444;-77
2022/08/14 03:55:30;;;;;;;4.03;2.90;;;;;;;;;;5007036;28;20428;-77
2022/08/14 03:57:57;;;;;;;4.30;2.77;;;;;;;;;;5013916;28;20498;-76
2022/08/14 04:00:23;;;;;;;5.40;3.10;;;;;;;;;;5003643;28;21055;-76
2022/08/14 04:02:49;;;;;;;4.07;3.70;;;;;;;;;;5003369;28;20440;-76
2022/08/14 04:05:15;;;;;;;8.00;2.70;;;;;;;;;;4984549;28;20484;-76
2022/08/14 04:07:41;;;;;;;5.30;2.87;;;;;;;;;;4994986;28;20448;-76
2022/08/14 04:10:09;;;;;;;4.60;2.87;;;;;;;;;;5007934;28;20570;-77
2022/08/14 04:12:36;;;;;;;3.23;2.90;;;;;;;;;;5008786;28;20435;-76
2022/08/14 04:15:02;;;;;;;3.20;3.00;;;;;;;;;;4984425;28;20459;-76
2022/08/14 04:17:29;;;;;;;3.20;2.90;;;;;;;;;;4998200;28;20537;-76
2022/08/14 04:20:08;;;;;;;3.13;2.83;;;;;;;;;;4987769;28;21067;-77
2022/08/14 04:22:35;;;;;;;3.27;2.97;;;;;;;;;;4989091;28;20486;-76
2022/08/14 04:25:01;;;;;;;6.10;3.20;;;;;;;;;;4991623;28;20454;-75
2022/08/14 04:27:28;;;;;;;4.40;2.80;;;;;;;;;;4989577;28;22102;-75
2022/08/14 04:29:56;;;;;;;4.03;3.50;;;;;;;;;;5000744;28;20467;-75
2022/08/14 04:32:25;;;;;;;5.40;3.10;;;;;;;;;;4983974;28;20475;-76
2022/08/14 04:35:11;;;;;;;4.07;3.50;;;;;;;;;;5001851;28;20447;-75
2022/08/14 04:45:51;;;;;;;3.40;3.03;;;;;;;;;;4983590;28;20896;-76
2022/08/14 04:48:19;;;;;;;5.47;3.90;;;;;;;;;;4987411;28;20443;-75
2022/08/14 04:50:46;;;;;;;3.20;2.70;;;;;;;;;;4979383;28;20444;-75
2022/08/14 04:53:14;;;;;;;3.53;3.17;;;;;;;;;;4998950;28;20440;-75
2022/08/14 04:55:41;;;;;;;3.57;3.13;;;;;;;;;;4998900;28;20531;-75
2022/08/14 04:58:08;;;;;;;4.43;3.50;;;;;;;;;;4984196;28;20478;-76
2022/08/14 05:00:39;;;;;;;6.93;3.50;;;;;;;;;;4989447;28;20472;-76
2022/08/14 05:03:06;;;;;;;3.17;2.87;;;;;;;;;;4997251;28;20523;-76
2022/08/14 05:05:32;;;;;;;3.60;3.30;;;;;;;;;;4987901;28;21677;-76
2022/08/14 05:08:08;;;;;;;3.97;3.53;;;;;;;;;;5000369;28;20968;-76
2022/08/14 05:10:41;;;;;;;4.10;3.70;;;;;;;;;;4994391;28;20451;-75
2022/08/14 05:13:08;;;;;;;3.47;3.07;;;;;;;;;;4994176;28;20420;-76
2022/08/14 05:15:35;;;;;;;4.17;3.43;;;;;;;;;;4994403;28;20428;-76
2022/08/14 05:18:02;;;;;;;3.03;2.80;;;;;;;;;;5002061;28;20547;-76
2022/08/14 05:20:29;;;;;;;4.20;3.53;;;;;;;;;;4997579;28;20537;-76
2022/08/14 05:22:55;;;;;;;4.87;2.80;;;;;;;;;;4982821;28;20527;-77
2022/08/14 05:25:21;;;;;;;5.00;3.43;;;;;;;;;;4976465;28;20660;-77
2022/08/14 05:27:46;;;;;;;5.53;3.43;;;;;;;;;;4995922;28;21066;-77
2022/08/14 05:30:14;;;;;;;3.47;2.90;;;;;;;;;;4977156;28;20412;-77
2022/08/14 05:32:42;;;;;;;6.10;3.30;;;;;;;;;;4996775;28;20911;-77
2022/08/14 05:35:12;;;;;;;3.33;3.03;;;;;;;;;;4999001;28;20529;-77
2022/08/14 05:37:40;;;;;;;3.60;3.30;;;;;;;;;;4969343;28;21049;-78
2022/08/14 05:40:09;;;;;;;3.87;3.50;;;;;;;;;;5000719;28;20520;-75
2022/08/14 05:42:38;;;;;;;3.53;3.23;;;;;;;;;;4989936;28;20704;-78
2022/08/14 05:45:04;;;;;;;3.30;3.00;;;;;;;;;;4993881;28;20574;-78
2022/08/14 05:47:31;;;;;;;3.70;3.30;;;;;;;;;;4994776;28;20810;-75
2022/08/14 05:49:57;;;;;;;3.70;3.37;;;;;;;;;;5001462;28;20445;-75
2022/08/14 05:52:54;;;;;;;6.37;3.20;;;;;;;;;;4975168;28;20444;-78
2022/08/14 05:55:24;;;;;;;4.77;3.80;;;;;;;;;;4953796;28;20444;-77
2022/08/14 05:57:53;;;;;;;3.77;3.37;;;;;;;;;;4983241;28;20435;-77
2022/08/14 06:00:20;;;;;;;5.07;3.50;;;;;;;;;;4954232;28;20440;-76
2022/08/14 06:02:46;;;;;;;4.50;2.60;;;;;;;;;;5002734;28;20440;-78
2022/08/14 06:05:28;;;;;;;3.30;3.00;;;;;;;;;;4968319;28;20432;-79
2022/08/14 06:07:54;;;;;;;3.67;3.37;;;;;;;;;;5004170;28;20193;-78
2022/08/14 06:10:20;;;;;;;3.77;3.10;;;;;;;;;;4983972;28;20510;-77
2022/08/14 06:12:46;;;;;;;3.10;2.87;;;;;;;;;;4988569;28;20679;-77
2022/08/14 06:15:12;;;;;;;4.33;3.87;;;;;;;;;;4977830;28;20570;-77
2022/08/14 06:17:48;;;;;;;4.67;3.90;;;;;;;;;;4982370;28;20432;-77
2022/08/14 06:20:14;;;;;;;4.40;4.00;;;;;;;;;;4986950;28;20290;-77
2022/08/14 06:22:41;;;;;;;3.90;3.50;;;;;;;;;;4978708;28;20938;-76
2022/08/14 06:25:08;;;;;;;5.73;4.00;;;;;;;;;;4964526;28;20440;-77
2022/08/14 06:27:47;;;;;;;4.40;4.00;;;;;;;;;;4981644;28;20881;-76
2022/08/14 06:30:14;;;;;;;6.33;3.97;;;;;;;;;;4947559;28;20468;-74
2022/08/14 06:32:40;;;;;;;4.40;4.00;;;;;;;;;;4995296;28;20472;-76
2022/08/14 06:35:07;;;;;;;4.57;4.17;;;;;;;;;;4976685;28;20551;-76
2022/08/14 06:37:46;;;;;;;4.77;4.27;;;;;;;;;;4996996;28;21272;-77
2022/08/14 06:40:13;;;;;;;3.53;3.23;;;;;;;;;;4984297;28;20436;-77
2022/08/14 06:42:39;;;;;;;4.27;3.87;;;;;;;;;;4982990;28;20459;-77
2022/08/14 06:45:05;;;;;;;5.00;4.40;;;;;;;;;;4967791;28;20463;-77
2022/08/14 06:47:39;;;;;;;4.10;3.73;;;;;;;;;;4982580;28;20429;-76
2022/08/14 06:50:09;;;;;;;6.03;3.97;;;;;;;;;;4996022;28;20432;-77
2022/08/14 06:52:36;;;;;;;4.30;3.90;;;;;;;;;;4996406;28;20433;-77
2022/08/14 06:55:02;;;;;;;4.80;4.40;;;;;;;;;;4980250;28;20424;-75
2022/08/14 06:57:34;;;;;;;4.50;4.10;;;;;;;;;;4994218;28;20526;-75
2022/08/14 07:00:00;;;;;;;4.40;4.00;;;;;;;;;;4969051;28;20462;-75
2022/08/14 07:10:50;;;;;;;5.07;4.33;;;;;;;;;;4937132;28;20441;-78
2022/08/14 07:13:19;;;;;;;4.23;3.93;;;;;;;;;;4954703;28;20448;-76
2022/08/14 07:15:46;;;;;;;4.67;4.20;;;;;;;;;;4998428;28;20454;-76
2022/08/14 07:18:12;;;;;;;4.30;3.90;;;;;;;;;;4980444;28;20478;-77
2022/08/14 07:20:39;;;;;;;4.80;3.93;;;;;;;;;;4993647;28;20442;-75
2022/08/14 07:23:06;;;;;;;4.03;3.63;;;;;;;;;;4985785;28;20424;-75
2022/08/14 07:25:32;;;;;;;6.33;4.30;;;;;;;;;;4995837;28;20923;-75
2022/08/14 07:27:58;;;;;;;5.00;4.50;;;;;;;;;;4963035;28;20639;-74
2022/08/14 07:30:24;;;;;;;4.90;4.10;;;;;;;;;;4995041;28;20181;-75
2022/08/14 07:32:50;;;;;;;4.40;4.00;;;;;;;;;;4970862;28;20508;-75
2022/08/14 07:35:16;;;;;;;3.90;3.60;;;;;;;;;;4995941;28;20450;-75
2022/08/14 07:37:42;;;;;;;3.73;3.43;;;;;;;;;;4978329;28;20448;-76
2022/08/14 07:40:09;;;;;;;4.27;3.73;;;;;;;;;;4990892;28;20689;-75
2022/08/14 07:45:44;;;;;;;4.50;3.83;;;;;;;;;;4996924;28;20436;-78
2022/08/14 07:48:10;;;;;;;4.03;3.63;;;;;;;;;;5004977;28;20443;-76
2022/08/14 07:50:38;;;;;;;5.63;3.80;;;;;;;;;;4992374;28;20437;-77
2022/08/14 07:53:11;;;;;;;4.90;4.50;;;;;;;;;;5008180;28;20473;-76
2022/08/14 07:55:37;;;;;;;6.70;3.37;;;;;;;;;;4979908;28;20448;-76
2022/08/14 07:58:03;;;;;;;3.37;3.07;;;;;;;;;;5006597;28;20982;-77
2022/08/14 08:00:30;;;;;;;4.90;4.50;;;;;;;;;;4973699;28;20471;-77
2022/08/14 08:03:00;;;;;;;3.83;3.53;;;;;;;;;;4996859;28;20771;-77
2022/08/14 08:05:26;;;;;;;4.63;3.60;;;;;;;;;;4972637;28;20444;-77
2022/08/14 08:07:52;;;;;;;4.67;4.27;;;;;;;;;;5008895;28;20428;-77
2022/08/14 08:10:32;;;;;;;4.20;3.80;;;;;;;;;;4981915;28;20476;-77
2022/08/14 08:16:04;;;;;;;3.87;3.57;;;;;;;;;;4986369;28;20919;-76
2022/08/14 08:18:30;;;;;;;4.03;3.60;;;;;;;;;;5003656;28;20486;-77
2022/08/14 08:20:56;;;;;;;3.93;3.53;;;;;;;;;;4996813;28;20435;-76
2022/08/14 08:23:22;;;;;;;4.50;3.40;;;;;;;;;;4969547;28;20453;-76
2022/08/14 08:25:58;;;;;;;3.90;3.50;;;;;;;;;;4975096;28;20442;-75
2022/08/14 08:28:30;;;;;;;4.97;3.57;;;;;;;;;;4974133;28;20455;-76
2022/08/14 08:30:56;;;;;;;3.30;3.00;;;;;;;;;;4973158;28;20450;-76
2022/08/14 08:33:25;;;;;;;3.73;3.10;;;;;;;;;;4987570;28;20531;-76
2022/08/14 08:35:59;;;;;;;3.30;3.00;;;;;;;;;;4969407;28;20468;-77
2022/08/14 08:38:26;;;;;;;3.70;3.40;;;;;;;;;;5005084;28;20611;-76
2022/08/14 08:40:55;;;;;;;3.90;3.10;;;;;;;;;;4972082;28;20432;-76
2022/08/14 08:43:50;;;;;;;3.80;2.80;;;;;;;;;;4976360;28;20436;-77
2022/08/14 08:46:21;;;;;;;3.50;3.20;;;;;;;;;;4984664;28;20447;-78
2022/08/14 08:48:48;;;;;;;4.63;3.50;;;;;;;;;;4971905;28;20938;-78
2022/08/14 08:51:21;;;;;;;4.53;3.27;;;;;;;;;;4978553;28;20443;-78
2022/08/14 08:54:00;;;;;;;3.07;2.77;;;;;;;;;;4986505;28;20424;-78
2022/08/14 08:56:39;;;;;;;3.13;2.87;;;;;;;;;;4979286;28;20467;-78
2022/08/14 08:59:15;;;;;;;2.67;2.40;;;;;;;;;;4986384;28;20478;-78
2022/08/14 09:01:41;;;;;;;4.47;2.83;;;;;;;;;;4967546;28;20929;-77
2022/08/14 09:04:07;;;;;;;3.77;2.80;;;;;;;;;;5008417;28;20493;-77
2022/08/14 09:06:42;;;;;;;3.63;2.90;;;;;;;;;;4966252;28;20197;-77
2022/08/14 09:09:27;;;;;;;3.17;2.87;;;;;;;;;;4999719;28;20454;-78
2022/08/14 09:12:00;;;;;;;3.30;3.00;;;;;;;;;;4961879;28;20457;-78
2022/08/14 09:14:28;;;;;;;3.20;2.90;;;;;;;;;;4960057;28;20440;-77
2022/08/14 09:17:04;;;;;;;3.90;3.60;;;;;;;;;;4977164;28;20672;-77
2022/08/14 09:19:33;;;;;;;3.83;2.90;;;;;;;;;;5001010;28;20495;-77
2022/08/14 09:21:59;;;;;;;2.97;2.70;;;;;;;;;;4970159;28;20439;-76
2022/08/14 09:24:26;;;;;;;4.60;3.60;;;;;;;;;;4989202;28;20440;-77
2022/08/14 09:26:52;;;;;;;3.70;3.37;;;;;;;;;;4981667;28;20838;-78
2022/08/14 09:29:18;;;;;;;4.47;2.90;;;;;;;;;;4998773;28;20431;-77
2022/08/14 09:31:44;;;;;;;3.60;3.20;;;;;;;;;;4985223;28;20734;-76
2022/08/14 09:34:20;;;;;;;3.63;3.33;;;;;;;;;;4957560;28;20706;-77
2022/08/14 09:37:12;;;;;;;7.07;3.60;;;;;;;;;;4981523;28;20432;-77
2022/08/14 09:43:02;;;;;;;3.73;3.43;;;;;;;;;;4999506;28;20434;-76
2022/08/14 09:45:41;;;;;;;4.90;3.87;;;;;;;;;;4992711;28;21104;-77
2022/08/14 09:48:32;;;;;;;5.53;4.00;;;;;;;;;;5010255;28;20451;-75
2022/08/14 09:51:07;;;;;;;4.13;3.50;;;;;;;;;;4990992;28;20437;-76
2022/08/14 09:53:33;;;;;;;3.47;3.17;;;;;;;;;;4985606;28;20436;-76
2022/08/14 09:56:35;;;;;;;6.37;4.00;;;;;;;;;;5001319;28;22648;-77
2022/08/14 09:59:12;;;;;;;4.10;3.80;;;;;;;;;;4955968;28;20506;-76
2022/08/14 10:01:39;;;;;;;5.57;3.80;;;;;;;;;;4974206;28;20503;-76
2022/08/14 10:04:06;;;;;;;4.60;3.50;;;;;;;;;;4981623;28;20445;-79
2022/08/14 10:06:32;;;;;;;4.40;3.60;;;;;;;;;;4957560;28;20763;-78
2022/08/14 10:09:05;;;;;;;4.50;4.10;;;;;;;;;;4993532;28;20450;-78
2022/08/14 10:11:35;;;;;;;4.37;3.97;;;;;;;;;;4972386;28;20437;-78
2022/08/14 10:14:17;;;;;;;3.83;3.53;;;;;;;;;;4991872;28;20456;-79
2022/08/14 10:16:43;;;;;;;4.90;3.53;;;;;;;;;;4993398;28;20594;-78
2022/08/14 10:19:10;;;;;;;4.37;3.97;;;;;;;;;;4975448;28;20617;-77
2022/08/14 10:21:38;;;;;;;5.53;3.60;;;;;;;;;;4982240;28;20436;-77
2022/08/14 10:24:23;;;;;;;4.20;3.80;;;;;;;;;;4982103;28;20436;-78
2022/08/14 10:26:53;;;;;;;4.33;3.93;;;;;;;;;;4988738;28;20448;-79
2022/08/14 10:29:30;;;;;;;4.27;3.87;;;;;;;;;;4943662;28;20434;-78
2022/08/14 10:31:58;;;;;;;4.00;3.70;;;;;;;;;;4992993;28;20455;-77
2022/08/14 10:34:30;;;;;;;3.97;3.67;;;;;;;;;;4978211;28;20547;-78
2022/08/14 10:37:02;;;;;;;5.23;3.53;;;;;;;;;;4994441;28;20464;-79
2022/08/14 10:39:28;;;;;;;4.57;4.17;;;;;;;;;;4968338;28;20496;-77
2022/08/14 10:42:04;;;;;;;4.10;3.80;;;;;;;;;;4992537;28;20428;-78
2022/08/14 10:44:37;;;;;;;4.23;3.90;;;;;;;;;;4963097;28;20443;-77
2022/08/14 10:47:23;;;;;;;4.10;3.80;;;;;;;;;;4963352;28;20539;-78
2022/08/14 10:49:56;;;;;;;8.80;4.60;;;;;;;;;;4999098;28;20451;-77
2022/08/14 10:52:23;;;;;;;4.00;3.47;;;;;;;;;;4958651;28;20893;-78
2022/08/14 10:54:49;;;;;;;5.30;4.27;;;;;;;;;;4994462;28;20451;-77
2022/08/14 10:57:37;;;;;;;4.00;3.60;;;;;;;;;;4969452;28;21378;-78
2022/08/14 11:00:13;;;;;;;3.87;3.57;;;;;;;;;;4988273;28;20547;-78
2022/08/14 11:02:39;;;;;;;4.20;3.90;;;;;;;;;;4975112;28;22729;-77
2022/08/14 11:05:17;;;;;;;4.80;4.10;;;;;;;;;;4990505;28;20780;-78
2022/08/14 11:07:54;;;;;;;4.70;4.20;;;;;;;;;;4967018;28;20446;-78
2022/08/14 11:10:20;;;;;;;4.40;4.00;;;;;;;;;;4974231;28;20478;-77
2022/08/14 11:12:48;;;;;;;3.90;3.60;;;;;;;;;;4991668;28;21216;-77
2022/08/14 11:15:15;;;;;;;4.33;3.93;;;;;;;;;;4960843;28;20428;-77
2022/08/14 11:17:41;;;;;;;4.70;3.90;;;;;;;;;;4995552;28;21115;-77
2022/08/14 11:20:11;;;;;;;4.43;4.03;;;;;;;;;;4991064;28;20730;-76
2022/08/14 11:22:41;;;;;;;3.90;3.60;;;;;;;;;;4990234;28;20449;-76
2022/08/14 11:25:07;;;;;;;4.30;3.90;;;;;;;;;;4975166;28;20459;-77
2022/08/14 11:27:34;;;;;;;4.60;4.10;;;;;;;;;;4986734;28;20916;-77
2022/08/14 11:30:00;;;;;;;3.80;3.43;;;;;;;;;;4979492;28;20749;-77
2022/08/14 11:32:35;;;;;;;4.30;3.90;;;;;;;;;;4985215;28;20436;-80
2022/08/14 11:35:40;;;;;;;4.90;4.50;;;;;;;;;;4962318;28;20863;-78
2022/08/14 11:38:06;;;;;;;3.97;3.67;;;;;;;;;;4933228;28;20466;-78
2022/08/14 11:40:33;;;;;;;4.97;4.00;;;;;;;;;;4958337;28;21911;-78
2022/08/14 11:43:00;;;;;;;4.20;3.87;;;;;;;;;;4997815;28;20432;-77
2022/08/14 11:45:35;;;;;;;4.00;3.70;;;;;;;;;;4969260;28;20869;-77
2022/08/14 11:48:02;;;;;;;4.10;3.70;;;;;;;;;;4963074;28;20497;-78
2022/08/14 11:50:31;;;;;;;4.47;4.00;;;;;;;;;;4979510;28;22115;-78
2022/08/14 11:52:58;;;;;;;4.40;4.00;;;;;;;;;;4978476;28;21431;-79
2022/08/14 11:55:33;;;;;;;3.70;3.40;;;;;;;;;;4975571;28;21129;-78
2022/08/14 11:58:01;;;;;;;3.90;3.60;;;;;;;;;;4993728;28;21040;-78
2022/08/14 12:01:15;;;;;;;5.07;4.43;;;;;;;;;;4968036;28;20551;-79
2022/08/14 12:03:45;;;;;;;5.93;3.70;;;;;;;;;;4935175;28;20537;-80
2022/08/14 12:06:20;;;;;;;4.77;4.00;;;;;;;;;;4979591;28;20448;-77
2022/08/14 12:09:16;;;;;;;3.73;3.43;;;;;;;;;;4999000;28;20451;-78
2022/08/14 12:11:43;;;;;;;5.20;3.53;;;;;;;;;;4975217;28;20452;-77
2022/08/14 12:14:09;;;;;;;6.63;3.97;;;;;;;;;;4997081;28;20528;-78
2022/08/14 12:16:35;;;;;;;3.97;3.37;;;;;;;;;;4980579;28;20525;-78
2022/08/14 12:19:01;;;;;;;4.07;3.77;;;;;;;;;;4995947;28;20535;-79
2022/08/14 12:21:27;;;;;;;4.17;3.77;;;;;;;;;;4990339;28;21648;-78
2022/08/14 12:24:04;;;;;;;4.03;3.63;;;;;;;;;;4974533;28;20655;-80
2022/08/14 12:26:30;;;;;;;4.47;4.07;;;;;;;;;;4963494;28;20606;-79
2022/08/14 12:29:15;;;;;;;3.90;3.60;;;;;;;;;;4978890;28;20447;-78
2022/08/14 12:31:42;;;;;;;3.40;3.10;;;;;;;;;;4956803;28;20900;-76
2022/08/14 12:34:08;;;;;;;3.67;3.33;;;;;;;;;;4978039;28;20486;-78
2022/08/14 12:36:34;;;;;;;4.23;3.93;;;;;;;;;;4973519;28;21155;-76
2022/08/14 12:39:00;;;;;;;3.53;3.23;;;;;;;;;;4994823;28;20892;-78
2022/08/14 12:41:28;;;;;;;4.23;3.50;;;;;;;;;;4979542;28;20452;-78
2022/08/14 12:44:00;;;;;;;4.07;3.67;;;;;;;;;;4992013;28;21245;-77
2022/08/14 12:46:32;;;;;;;5.00;3.20;;;;;;;;;;4973541;28;20424;-75
2022/08/14 12:49:05;;;;;;;3.27;3.07;;;;;;;;;;4991444;28;20435;-76
2022/08/14 12:51:31;;;;;;;4.23;3.17;;;;;;;;;;4971226;28;20444;-76
2022/08/14 12:53:57;;;;;;;3.90;3.60;;;;;;;;;;4994373;28;20452;-76
2022/08/14 12:56:27;;;;;;;3.43;3.10;;;;;;;;;;4984701;28;20927;-77
2022/08/14 12:58:54;;;;;;;4.00;3.30;;;;;;;;;;4998330;28;20484;-76
2022/08/14 13:01:41;;;;;;;3.80;3.20;;;;;;;;;;4983966;28;20519;-77
2022/08/14 13:04:11;;;;;;;2.97;2.77;;;;;;;;;;4990700;28;20451;-76
2022/08/14 13:06:38;;;;;;;2.97;2.77;;;;;;;;;;4948420;28;20440;-76
2022/08/14 13:09:05;;;;;;;3.20;2.90;;;;;;;;;;4977284;28;20440;-77
2022/08/14 13:11:36;;;;;;;3.80;3.50;;;;;;;;;;4978012;28;20432;-76
2022/08/14 13:14:08;;;;;;;3.47;3.17;;;;;;;;;;4983658;28;20509;-75
2022/08/14 13:16:34;;;;;;;2.87;2.67;;;;;;;;;;4971722;28;21002;-79
2022/08/14 13:19:00;;;;;;;3.37;3.07;;;;;;;;;;4998225;28;20545;-76
2022/08/14 13:21:26;;;;;;;3.17;2.87;;;;;;;;;;4978571;28;20220;-78
2022/08/14 13:23:52;;;;;;;2.83;2.63;;;;;;;;;;4989321;28;21283;-77
2022/08/14 13:26:28;;;;;;;3.20;2.90;;;;;;;;;;4959544;28;21185;-74
2022/08/14 13:28:54;;;;;;;4.20;2.90;;;;;;;;;;4987360;28;20169;-75
2022/08/14 13:31:22;;;;;;;3.10;2.50;;;;;;;;;;4987954;28;20531;-75
2022/08/14 13:37:09;;;;;;;3.17;2.80;;;;;;;;;;4952025;28;20428;-76
2022/08/14 13:39:35;;;;;;;3.50;3.30;;;;;;;;;;4988266;28;20480;-78
2022/08/14 13:42:10;;;;;;;2.93;2.73;;;;;;;;;;5006291;28;20177;-77
2022/08/14 13:44:39;;;;;;;3.30;3.10;;;;;;;;;;4946700;28;21801;-76
2022/08/14 13:47:05;;;;;;;3.70;3.40;;;;;;;;;;4993578;28;20441;-76
2022/08/14 13:49:32;;;;;;;3.17;2.90;;;;;;;;;;4972424;28;20472;-75
2022/08/14 13:51:58;;;;;;;6.60;3.00;;;;;;;;;;4987678;28;20518;-76
2022/08/14 13:54:26;;;;;;;3.87;3.60;;;;;;;;;;4958499;28;20483;-76
2022/08/14 13:57:05;;;;;;;3.77;2.73;;;;;;;;;;4983031;28;20436;-74
2022/08/14 13:59:34;;;;;;;2.90;2.60;;;;;;;;;;4954980;28;20483;-75
2022/08/14 14:02:07;;;;;;;2.80;2.60;;;;;;;;;;4998330;28;20456;-76
2022/08/14 14:05:01;;;;;;;3.27;2.83;;;;;;;;;;4988958;28;21256;-78
2022/08/14 14:07:27;;;;;;;3.33;3.03;;;;;;;;;;4977571;28;21013;-77
2022/08/14 14:10:20;;;;;;;3.27;2.83;;;;;;;;;;4991093;28;20472;-78
2022/08/14 14:12:47;;;;;;;3.50;2.30;;;;;;;;;;4978399;28;20189;-74
2022/08/14 14:15:22;;;;;;;3.90;2.53;;;;;;;;;;4974322;28;20952;-77
2022/08/14 14:17:49;;;;;;;2.90;2.60;;;;;;;;;;4986834;28;20439;-78
2022/08/14 14:20:19;;;;;;;3.53;2.63;;;;;;;;;;4992519;28;20477;-76
2022/08/14 14:22:49;;;;;;;2.97;2.57;;;;;;;;;;4993587;28;20424;-75
2022/08/14 14:25:16;;;;;;;3.20;2.60;;;;;;;;;;4976017;28;20456;-77
2022/08/14 14:27:48;;;;;;;2.53;2.33;;;;;;;;;;5001897;28;20436;-77
2022/08/14 14:30:15;;;;;;;2.57;2.37;;;;;;;;;;4968327;28;20445;-77
2022/08/14 14:32:42;;;;;;;4.00;3.00;;;;;;;;;;4986655;28;21911;-76
2022/08/14 14:35:13;;;;;;;2.40;2.20;;;;;;;;;;4968508;28;20448;-77
2022/08/14 14:37:39;;;;;;;2.60;2.40;;;;;;;;;;4962687;28;20708;-77
2022/08/14 14:40:37;;;;;;;3.60;2.97;;;;;;;;;;4977364;28;20480;-77
2022/08/14 14:43:03;;;;;;;3.00;2.60;;;;;;;;;;4979843;28;21002;-79
2022/08/14 14:45:29;;;;;;;3.13;2.83;;;;;;;;;;4991233;28;20446;-78
2022/08/14 14:48:14;;;;;;;2.50;2.30;;;;;;;;;;4977451;28;20447;-76
2022/08/14 14:50:40;;;;;;;2.67;2.47;;;;;;;;;;4995827;28;20852;-77
2022/08/14 14:56:21;;;;;;;3.80;3.20;;;;;;;;;;4983654;28;20447;-77
2022/08/14 14:58:47;;;;;;;2.73;2.53;;;;;;;;;;4974615;28;20484;-77
2022/08/14 15:01:14;;;;;;;3.47;3.17;;;;;;;;;;4974717;28;20494;-77
2022/08/14 15:03:44;;;;;;;4.10;2.90;;;;;;;;;;4965449;28;20375;-79
2022/08/14 15:06:14;;;;;;;3.43;3.13;;;;;;;;;;4995071;28;20585;-78
2022/08/14 15:08:54;;;;;;;2.77;2.57;;;;;;;;;;4983435;28;20446;-79
2022/08/14 15:11:21;;;;;;;2.77;2.40;;;;;;;;;;5003239;28;20447;-79
2022/08/14 15:13:47;;;;;;;3.70;3.17;;;;;;;;;;4990079;28;20864;-79
2022/08/14 15:16:13;;;;;;;3.10;2.80;;;;;;;;;;4980879;28;20919;-79
2022/08/14 15:18:39;;;;;;;3.30;2.80;;;;;;;;;;4968097;28;20525;-79
2022/08/14 15:21:05;;;;;;;3.40;3.10;;;;;;;;;;4989392;28;20428;-76
2022/08/14 15:23:31;;;;;;;3.60;2.70;;;;;;;;;;4959098;28;20622;-76
2022/08/14 15:26:04;;;;;;;3.23;2.80;;;;;;;;;;4978035;28;20456;-77
2022/08/14 15:28:35;;;;;;;3.40;3.10;;;;;;;;;;4983908;28;20542;-78
2022/08/14 15:31:01;;;;;;;2.87;2.67;;;;;;;;;;5009304;28;20560;-78
2022/08/14 15:36:14;;;;;;;3.00;2.73;;;;;;;;;;5000707;28;20440;-79
2022/08/14 15:38:40;;;;;;;3.20;2.90;;;;;;;;;;5000769;28;20471;-79
2022/08/14 15:41:06;;;;;;;3.27;2.60;;;;;;;;;;4995126;28;20436;-78
2022/08/14 15:43:32;;;;;;;2.77;2.57;;;;;;;;;;4974637;28;20287;-77